sensor_id;sensor_type;location;lat;lon;timestamp;temperature;humidity
52323;DHT22;38263;52.920;6.238;2022-07-06T00:00:42;14.30;99.90
52323;DHT22;38263;52.920;6.238;2022-07-06T00:03:07;14.30;99.90
52323;DHT22;38263;52.920;6.238;2022-07-06T00:05:33;14.30;99.90
52323;DHT22;38263;52.920;6.238;2022-07-06T00:07:59;14.20;99.90
52323;DHT22;38263;52.920;6.238;2022-07-06T00:10:24;14.20;99.90
52323;DHT22;38263;52.920;6.238;2022-07-06T00:12:50;14.10;99.90
52323;DHT22;38263;52.920;6.238;2022-07-06T00:15:15;14.20;99.90
52323;DHT22;38263;52.920;6.238;2022-07-06T00:17:41;14.10;99.90
52323;DHT22;38263;52.920;6.238;2022-07-06T00:20:07;14.20;99.90
52323;DHT22;38263;52.920;6.238;2022-07-06T00:22:32;14.10;99.90
52323;DHT22;38263;52.920;6.238;2022-07-06T00:27:24;14.20;99.90
52323;DHT22;38263;52.920;6.238;2022-07-06T00:29:49;14.20;99.90
52323;DHT22;38263;52.920;6.238;2022-07-06T00:32:15;14.10;99.90
52323;DHT22;38263;52.920;6.238;2022-07-06T00:34:41;14.10;99.90
52323;DHT22;38263;52.920;6.238;2022-07-06T00:37:06;14.00;99.90
52323;DHT22;38263;52.920;6.238;2022-07-06T00:39:33;14.20;99.90
52323;DHT22;38263;52.920;6.238;2022-07-06T00:41:59;14.10;99.90
52323;DHT22;38263;52.920;6.238;2022-07-06T00:44:25;14.20;99.90
52323;DHT22;38263;52.920;6.238;2022-07-06T00:46:50;14.20;99.90
52323;DHT22;38263;52.920;6.238;2022-07-06T00:49:16;14.10;99.90
52323;DHT22;38263;52.920;6.238;2022-07-06T00:52:01;14.10;99.90
52323;DHT22;38263;52.920;6.238;2022-07-06T00:54:27;14.30;99.90
52323;DHT22;38263;52.920;6.238;2022-07-06T00:56:55;14.00;99.90
52323;DHT22;38263;52.920;6.238;2022-07-06T00:59:21;14.20;99.90
52323;DHT22;38263;52.920;6.238;2022-07-06T01:01:47;14.10;99.90
52323;DHT22;38263;52.920;6.238;2022-07-06T01:04:12;14.20;99.90
52323;DHT22;38263;52.920;6.238;2022-07-06T01:06:38;14.20;99.90
52323;DHT22;38263;52.920;6.238;2022-07-06T01:09:05;14.20;99.90
52323;DHT22;38263;52.920;6.238;2022-07-06T01:11:31;14.30;99.90
52323;DHT22;38263;52.920;6.238;2022-07-06T01:13:57;14.10;99.90
52323;DHT22;38263;52.920;6.238;2022-07-06T01:16:25;14.10;99.90
52323;DHT22;38263;52.920;6.238;2022-07-06T01:18:50;14.20;99.90
52323;DHT22;38263;52.920;6.238;2022-07-06T01:21:16;14.20;99.90
52323;DHT22;38263;52.920;6.238;2022-07-06T01:23:43;14.00;99.90
52323;DHT22;38263;52.920;6.238;2022-07-06T01:26:27;13.90;99.90
52323;DHT22;38263;52.920;6.238;2022-07-06T01:28:53;14.10;99.90
52323;DHT22;38263;52.920;6.238;2022-07-06T01:31:24;14.10;99.90
52323;DHT22;38263;52.920;6.238;2022-07-06T01:33:51;14.00;99.90
52323;DHT22;38263;52.920;6.238;2022-07-06T01:36:17;14.20;99.90
52323;DHT22;38263;52.920;6.238;2022-07-06T01:38:51;14.00;99.90
52323;DHT22;38263;52.920;6.238;2022-07-06T01:41:17;14.00;99.90
52323;DHT22;38263;52.920;6.238;2022-07-06T01:43:43;14.10;99.90
52323;DHT22;38263;52.920;6.238;2022-07-06T01:46:09;14.20;99.90
52323;DHT22;38263;52.920;6.238;2022-07-06T01:48:35;14.20;99.90
52323;DHT22;38263;52.920;6.238;2022-07-06T01:51:01;14.10;99.90
52323;DHT22;38263;52.920;6.238;2022-07-06T01:53:27;13.90;99.90
52323;DHT22;38263;52.920;6.238;2022-07-06T01:55:53;13.90;99.90
52323;DHT22;38263;52.920;6.238;2022-07-06T02:00:44;14.20;99.90
52323;DHT22;38263;52.920;6.238;2022-07-06T02:03:10;14.00;99.90
52323;DHT22;38263;52.920;6.238;2022-07-06T02:05:35;14.10;99.90
52323;DHT22;38263;52.920;6.238;2022-07-06T02:08:01;14.00;99.90
52323;DHT22;38263;52.920;6.238;2022-07-06T02:10:26;14.00;99.90
52323;DHT22;38263;52.920;6.238;2022-07-06T02:12:52;14.00;99.90
52323;DHT22;38263;52.920;6.238;2022-07-06T02:17:43;13.80;99.90
52323;DHT22;38263;52.920;6.238;2022-07-06T02:20:09;13.80;99.90
52323;DHT22;38263;52.920;6.238;2022-07-06T02:22:35;13.90;99.90
52323;DHT22;38263;52.920;6.238;2022-07-06T02:25:01;14.00;99.90
52323;DHT22;38263;52.920;6.238;2022-07-06T02:27:26;14.00;99.90
52323;DHT22;38263;52.920;6.238;2022-07-06T02:29:52;14.00;99.90
52323;DHT22;38263;52.920;6.238;2022-07-06T02:32:17;14.00;99.90
52323;DHT22;38263;52.920;6.238;2022-07-06T02:34:43;13.90;99.90
52323;DHT22;38263;52.920;6.238;2022-07-06T02:37:09;14.00;99.90
52323;DHT22;38263;52.920;6.238;2022-07-06T02:39:34;14.00;99.90
52323;DHT22;38263;52.920;6.238;2022-07-06T02:42:00;14.00;99.90
52323;DHT22;38263;52.920;6.238;2022-07-06T02:44:25;14.20;99.90
52323;DHT22;38263;52.920;6.238;2022-07-06T02:46:51;13.90;99.90
52323;DHT22;38263;52.920;6.238;2022-07-06T02:49:16;14.00;99.90
52323;DHT22;38263;52.920;6.238;2022-07-06T02:51:42;13.90;99.90
52323;DHT22;38263;52.920;6.238;2022-07-06T02:54:08;13.90;99.90
52323;DHT22;38263;52.920;6.238;2022-07-06T02:56:33;13.90;99.90
52323;DHT22;38263;52.920;6.238;2022-07-06T02:58:59;13.90;99.90
52323;DHT22;38263;52.920;6.238;2022-07-06T03:01:24;14.10;99.90
52323;DHT22;38263;52.920;6.238;2022-07-06T03:03:50;14.10;99.90
52323;DHT22;38263;52.920;6.238;2022-07-06T03:06:16;14.00;99.90
52323;DHT22;38263;52.920;6.238;2022-07-06T03:08:41;14.20;99.90
52323;DHT22;38263;52.920;6.238;2022-07-06T03:11:07;14.00;99.90
52323;DHT22;38263;52.920;6.238;2022-07-06T03:13:32;14.20;99.90
52323;DHT22;38263;52.920;6.238;2022-07-06T03:15:58;14.10;99.90
52323;DHT22;38263;52.920;6.238;2022-07-06T03:18:23;14.00;99.90
52323;DHT22;38263;52.920;6.238;2022-07-06T03:20:49;14.20;99.90
52323;DHT22;38263;52.920;6.238;2022-07-06T03:23:15;14.00;99.90
52323;DHT22;38263;52.920;6.238;2022-07-06T03:25:40;14.00;99.90
52323;DHT22;38263;52.920;6.238;2022-07-06T03:28:06;14.20;99.90
52323;DHT22;38263;52.920;6.238;2022-07-06T03:30:31;14.10;99.90
52323;DHT22;38263;52.920;6.238;2022-07-06T03:35:23;14.10;99.90
52323;DHT22;38263;52.920;6.238;2022-07-06T03:37:48;14.20;99.90
52323;DHT22;38263;52.920;6.238;2022-07-06T03:40:14;14.20;99.90
52323;DHT22;38263;52.920;6.238;2022-07-06T03:42:40;14.10;99.90
52323;DHT22;38263;52.920;6.238;2022-07-06T03:45:06;14.00;99.90
52323;DHT22;38263;52.920;6.238;2022-07-06T03:47:32;14.20;99.90
52323;DHT22;38263;52.920;6.238;2022-07-06T03:49:58;14.20;99.90
52323;DHT22;38263;52.920;6.238;2022-07-06T03:52:23;14.20;99.90
52323;DHT22;38263;52.920;6.238;2022-07-06T03:54:49;14.20;99.90
52323;DHT22;38263;52.920;6.238;2022-07-06T03:57:14;14.00;99.90
52323;DHT22;38263;52.920;6.238;2022-07-06T04:02:06;14.20;99.90
52323;DHT22;38263;52.920;6.238;2022-07-06T04:04:33;14.10;99.90
52323;DHT22;38263;52.920;6.238;2022-07-06T04:06:59;14.40;99.90
52323;DHT22;38263;52.920;6.238;2022-07-06T04:09:25;14.10;99.90
52323;DHT22;38263;52.920;6.238;2022-07-06T04:11:51;14.50;99.90
52323;DHT22;38263;52.920;6.238;2022-07-06T04:14:18;14.20;99.90
52323;DHT22;38263;52.920;6.238;2022-07-06T04:16:43;14.30;99.90
52323;DHT22;38263;52.920;6.238;2022-07-06T04:19:09;14.20;99.90
52323;DHT22;38263;52.920;6.238;2022-07-06T04:21:35;14.30;99.90
52323;DHT22;38263;52.920;6.238;2022-07-06T04:24:00;14.20;99.90
52323;DHT22;38263;52.920;6.238;2022-07-06T04:26:26;14.40;99.90
52323;DHT22;38263;52.920;6.238;2022-07-06T04:28:52;14.40;99.90
52323;DHT22;38263;52.920;6.238;2022-07-06T04:31:17;14.30;99.90
52323;DHT22;38263;52.920;6.238;2022-07-06T04:33:43;14.60;99.90
52323;DHT22;38263;52.920;6.238;2022-07-06T04:36:09;14.40;99.90
52323;DHT22;38263;52.920;6.238;2022-07-06T04:38:35;14.60;99.90
52323;DHT22;38263;52.920;6.238;2022-07-06T04:41:01;14.60;99.90
52323;DHT22;38263;52.920;6.238;2022-07-06T04:43:27;14.50;99.90
52323;DHT22;38263;52.920;6.238;2022-07-06T04:45:52;14.60;99.90
52323;DHT22;38263;52.920;6.238;2022-07-06T04:48:18;14.60;99.90
52323;DHT22;38263;52.920;6.238;2022-07-06T04:50:43;14.50;99.90
52323;DHT22;38263;52.920;6.238;2022-07-06T04:53:09;14.60;99.90
52323;DHT22;38263;52.920;6.238;2022-07-06T04:55:35;14.80;99.90
52323;DHT22;38263;52.920;6.238;2022-07-06T04:58:00;14.70;99.90
52323;DHT22;38263;52.920;6.238;2022-07-06T05:00:26;14.70;99.90
52323;DHT22;38263;52.920;6.238;2022-07-06T05:02:52;14.70;99.90
52323;DHT22;38263;52.920;6.238;2022-07-06T05:05:17;14.60;99.90
52323;DHT22;38263;52.920;6.238;2022-07-06T05:07:43;14.70;99.90
52323;DHT22;38263;52.920;6.238;2022-07-06T05:10:10;14.80;99.90
52323;DHT22;38263;52.920;6.238;2022-07-06T05:12:36;15.00;99.90
52323;DHT22;38263;52.920;6.238;2022-07-06T05:15:02;15.00;99.90
52323;DHT22;38263;52.920;6.238;2022-07-06T05:17:27;15.10;99.90
52323;DHT22;38263;52.920;6.238;2022-07-06T05:19:53;14.90;99.90
52323;DHT22;38263;52.920;6.238;2022-07-06T05:22:19;14.80;99.90
52323;DHT22;38263;52.920;6.238;2022-07-06T05:24:44;14.90;99.90
52323;DHT22;38263;52.920;6.238;2022-07-06T05:27:10;14.80;99.90
52323;DHT22;38263;52.920;6.238;2022-07-06T05:29:36;14.80;99.90
52323;DHT22;38263;52.920;6.238;2022-07-06T05:32:02;15.00;99.90
52323;DHT22;38263;52.920;6.238;2022-07-06T05:34:27;14.80;99.90
52323;DHT22;38263;52.920;6.238;2022-07-06T05:36:53;14.80;99.90
52323;DHT22;38263;52.920;6.238;2022-07-06T05:39:19;14.80;99.90
52323;DHT22;38263;52.920;6.238;2022-07-06T05:44:12;14.90;99.90
52323;DHT22;38263;52.920;6.238;2022-07-06T05:46:38;14.80;99.90
52323;DHT22;38263;52.920;6.238;2022-07-06T05:49:03;14.90;99.90
52323;DHT22;38263;52.920;6.238;2022-07-06T05:51:48;15.10;99.90
52323;DHT22;38263;52.920;6.238;2022-07-06T05:54:15;14.80;99.90
52323;DHT22;38263;52.920;6.238;2022-07-06T05:56:40;14.90;99.90
52323;DHT22;38263;52.920;6.238;2022-07-06T05:59:06;14.90;99.90
52323;DHT22;38263;52.920;6.238;2022-07-06T06:01:31;14.90;99.90
52323;DHT22;38263;52.920;6.238;2022-07-06T06:03:57;15.10;99.90
52323;DHT22;38263;52.920;6.238;2022-07-06T06:06:22;15.10;99.90
52323;DHT22;38263;52.920;6.238;2022-07-06T06:08:48;15.10;99.90
52323;DHT22;38263;52.920;6.238;2022-07-06T06:11:13;14.90;99.90
52323;DHT22;38263;52.920;6.238;2022-07-06T06:13:39;14.90;99.90
52323;DHT22;38263;52.920;6.238;2022-07-06T06:16:05;15.10;99.90
52323;DHT22;38263;52.920;6.238;2022-07-06T06:18:30;15.00;99.90
52323;DHT22;38263;52.920;6.238;2022-07-06T06:20:56;15.00;99.90
52323;DHT22;38263;52.920;6.238;2022-07-06T06:23:22;15.00;99.90
52323;DHT22;38263;52.920;6.238;2022-07-06T06:25:47;15.10;99.90
52323;DHT22;38263;52.920;6.238;2022-07-06T06:28:13;15.00;99.90
52323;DHT22;38263;52.920;6.238;2022-07-06T06:30:39;15.10;99.90
52323;DHT22;38263;52.920;6.238;2022-07-06T06:33:23;15.30;99.90
52323;DHT22;38263;52.920;6.238;2022-07-06T06:35:52;15.30;99.90
52323;DHT22;38263;52.920;6.238;2022-07-06T06:38:19;15.20;99.90
52323;DHT22;38263;52.920;6.238;2022-07-06T06:40:45;15.30;99.90
52323;DHT22;38263;52.920;6.238;2022-07-06T06:43:11;15.30;99.90
52323;DHT22;38263;52.920;6.238;2022-07-06T06:45:37;15.30;99.90
52323;DHT22;38263;52.920;6.238;2022-07-06T06:48:03;15.40;99.90
52323;DHT22;38263;52.920;6.238;2022-07-06T06:50:29;15.50;99.90
52323;DHT22;38263;52.920;6.238;2022-07-06T06:52:55;16.90;99.90
52323;DHT22;38263;52.920;6.238;2022-07-06T06:55:20;15.50;99.90
52323;DHT22;38263;52.920;6.238;2022-07-06T06:57:46;15.50;99.90
52323;DHT22;38263;52.920;6.238;2022-07-06T07:00:12;15.50;99.90
52323;DHT22;38263;52.920;6.238;2022-07-06T07:02:39;15.40;99.90
52323;DHT22;38263;52.920;6.238;2022-07-06T07:05:05;15.60;99.90
52323;DHT22;38263;52.920;6.238;2022-07-06T07:07:31;15.70;99.90
52323;DHT22;38263;52.920;6.238;2022-07-06T07:09:56;15.50;99.90
52323;DHT22;38263;52.920;6.238;2022-07-06T07:12:22;15.90;99.90
52323;DHT22;38263;52.920;6.238;2022-07-06T07:14:47;15.90;99.90
52323;DHT22;38263;52.920;6.238;2022-07-06T07:17:13;15.90;99.90
52323;DHT22;38263;52.920;6.238;2022-07-06T07:19:40;16.00;99.90
52323;DHT22;38263;52.920;6.238;2022-07-06T07:22:05;16.00;99.90
52323;DHT22;38263;52.920;6.238;2022-07-06T07:24:31;16.20;99.90
52323;DHT22;38263;52.920;6.238;2022-07-06T07:26:57;16.30;99.90
52323;DHT22;38263;52.920;6.238;2022-07-06T07:29:23;16.30;99.90
52323;DHT22;38263;52.920;6.238;2022-07-06T07:31:48;16.40;99.90
52323;DHT22;38263;52.920;6.238;2022-07-06T07:34:14;16.60;99.90
52323;DHT22;38263;52.920;6.238;2022-07-06T07:36:39;16.70;99.90
52323;DHT22;38263;52.920;6.238;2022-07-06T07:39:05;16.80;99.90
52323;DHT22;38263;52.920;6.238;2022-07-06T07:41:31;17.00;99.90
52323;DHT22;38263;52.920;6.238;2022-07-06T07:43:56;17.00;99.90
52323;DHT22;38263;52.920;6.238;2022-07-06T07:46:22;16.90;99.90
52323;DHT22;38263;52.920;6.238;2022-07-06T07:48:47;17.10;99.90
52323;DHT22;38263;52.920;6.238;2022-07-06T07:51:13;17.10;99.90
52323;DHT22;38263;52.920;6.238;2022-07-06T07:53:39;17.10;99.90
52323;DHT22;38263;52.920;6.238;2022-07-06T07:56:04;17.20;99.90
52323;DHT22;38263;52.920;6.238;2022-07-06T07:58:30;18.10;99.90
52323;DHT22;38263;52.920;6.238;2022-07-06T08:00:55;17.20;99.90
52323;DHT22;38263;52.920;6.238;2022-07-06T08:03:21;17.40;99.90
52323;DHT22;38263;52.920;6.238;2022-07-06T08:05:47;17.60;99.90
52323;DHT22;38263;52.920;6.238;2022-07-06T08:08:14;17.30;99.90
52323;DHT22;38263;52.920;6.238;2022-07-06T08:10:40;17.40;99.90
52323;DHT22;38263;52.920;6.238;2022-07-06T08:13:06;17.30;99.90
52323;DHT22;38263;52.920;6.238;2022-07-06T08:15:33;17.40;99.90
52323;DHT22;38263;52.920;6.238;2022-07-06T08:17:59;17.20;99.90
52323;DHT22;38263;52.920;6.238;2022-07-06T08:20:25;17.40;99.90
52323;DHT22;38263;52.920;6.238;2022-07-06T08:22:51;17.40;99.90
52323;DHT22;38263;52.920;6.238;2022-07-06T08:25:16;17.30;99.90
52323;DHT22;38263;52.920;6.238;2022-07-06T08:27:42;17.50;99.90
52323;DHT22;38263;52.920;6.238;2022-07-06T08:30:08;17.60;99.90
52323;DHT22;38263;52.920;6.238;2022-07-06T08:32:38;17.70;99.90
52323;DHT22;38263;52.920;6.238;2022-07-06T08:35:04;17.50;99.90
52323;DHT22;38263;52.920;6.238;2022-07-06T08:37:30;17.90;99.90
52323;DHT22;38263;52.920;6.238;2022-07-06T08:39:56;17.70;99.90
52323;DHT22;38263;52.920;6.238;2022-07-06T08:42:25;17.70;99.90
52323;DHT22;38263;52.920;6.238;2022-07-06T08:44:55;17.60;99.90
52323;DHT22;38263;52.920;6.238;2022-07-06T08:47:25;18.00;99.90
52323;DHT22;38263;52.920;6.238;2022-07-06T08:49:51;17.90;99.90
52323;DHT22;38263;52.920;6.238;2022-07-06T08:52:18;17.90;99.90
52323;DHT22;38263;52.920;6.238;2022-07-06T08:54:44;18.20;99.90
52323;DHT22;38263;52.920;6.238;2022-07-06T08:57:10;18.40;99.90
52323;DHT22;38263;52.920;6.238;2022-07-06T08:59:35;18.10;99.90
52323;DHT22;38263;52.920;6.238;2022-07-06T09:02:03;18.30;99.90
52323;DHT22;38263;52.920;6.238;2022-07-06T09:04:29;18.10;99.90
52323;DHT22;38263;52.920;6.238;2022-07-06T09:06:57;18.40;99.90
52323;DHT22;38263;52.920;6.238;2022-07-06T09:09:23;18.50;99.90
52323;DHT22;38263;52.920;6.238;2022-07-06T09:11:50;18.60;99.90
52323;DHT22;38263;52.920;6.238;2022-07-06T09:14:16;18.60;99.90
52323;DHT22;38263;52.920;6.238;2022-07-06T09:16:42;18.40;99.90
52323;DHT22;38263;52.920;6.238;2022-07-06T09:19:10;18.80;99.90
52323;DHT22;38263;52.920;6.238;2022-07-06T09:21:36;18.70;99.90
52323;DHT22;38263;52.920;6.238;2022-07-06T09:24:06;18.60;99.90
52323;DHT22;38263;52.920;6.238;2022-07-06T09:26:32;18.70;99.90
52323;DHT22;38263;52.920;6.238;2022-07-06T09:28:59;19.00;99.90
52323;DHT22;38263;52.920;6.238;2022-07-06T09:31:25;18.70;99.90
52323;DHT22;38263;52.920;6.238;2022-07-06T09:34:08;18.80;99.90
52323;DHT22;38263;52.920;6.238;2022-07-06T09:36:47;18.90;99.90
52323;DHT22;38263;52.920;6.238;2022-07-06T09:39:29;19.00;99.90
52323;DHT22;38263;52.920;6.238;2022-07-06T09:41:59;18.70;99.90
52323;DHT22;38263;52.920;6.238;2022-07-06T09:44:33;18.90;99.90
52323;DHT22;38263;52.920;6.238;2022-07-06T09:47:04;18.80;99.90
52323;DHT22;38263;52.920;6.238;2022-07-06T09:49:30;18.90;99.90
52323;DHT22;38263;52.920;6.238;2022-07-06T09:51:58;18.50;99.90
52323;DHT22;38263;52.920;6.238;2022-07-06T09:54:24;18.40;99.90
52323;DHT22;38263;52.920;6.238;2022-07-06T09:56:51;18.30;99.90
52323;DHT22;38263;52.920;6.238;2022-07-06T09:59:19;19.20;99.90
52323;DHT22;38263;52.920;6.238;2022-07-06T10:01:46;18.60;99.90
52323;DHT22;38263;52.920;6.238;2022-07-06T10:04:13;18.60;99.90
52323;DHT22;38263;52.920;6.238;2022-07-06T10:06:40;19.00;99.90
52323;DHT22;38263;52.920;6.238;2022-07-06T10:09:08;18.90;99.90
52323;DHT22;38263;52.920;6.238;2022-07-06T10:11:38;19.40;99.90
52323;DHT22;38263;52.920;6.238;2022-07-06T10:14:06;19.50;99.90
52323;DHT22;38263;52.920;6.238;2022-07-06T10:16:36;19.60;99.90
52323;DHT22;38263;52.920;6.238;2022-07-06T10:19:05;19.40;99.90
52323;DHT22;38263;52.920;6.238;2022-07-06T10:21:31;19.70;99.90
52323;DHT22;38263;52.920;6.238;2022-07-06T10:23:57;19.70;99.90
52323;DHT22;38263;52.920;6.238;2022-07-06T10:26:25;19.50;99.90
52323;DHT22;38263;52.920;6.238;2022-07-06T10:28:52;19.90;99.90
52323;DHT22;38263;52.920;6.238;2022-07-06T10:31:18;19.70;99.90
52323;DHT22;38263;52.920;6.238;2022-07-06T10:33:45;19.80;99.90
52323;DHT22;38263;52.920;6.238;2022-07-06T10:36:11;19.70;99.90
52323;DHT22;38263;52.920;6.238;2022-07-06T10:38:37;19.50;99.90
52323;DHT22;38263;52.920;6.238;2022-07-06T10:41:05;19.60;99.90
52323;DHT22;38263;52.920;6.238;2022-07-06T10:43:42;19.80;99.90
52323;DHT22;38263;52.920;6.238;2022-07-06T10:46:18;19.30;99.90
52323;DHT22;38263;52.920;6.238;2022-07-06T10:48:47;19.50;99.90
52323;DHT22;38263;52.920;6.238;2022-07-06T10:51:26;19.80;99.90
52323;DHT22;38263;52.920;6.238;2022-07-06T10:53:58;19.90;99.90
52323;DHT22;38263;52.920;6.238;2022-07-06T10:56:42;19.90;99.90
52323;DHT22;38263;52.920;6.238;2022-07-06T11:01:40;19.90;99.90
52323;DHT22;38263;52.920;6.238;2022-07-06T11:04:07;20.00;99.90
52323;DHT22;38263;52.920;6.238;2022-07-06T11:06:39;20.00;99.90
52323;DHT22;38263;52.920;6.238;2022-07-06T11:09:11;20.00;99.90
52323;DHT22;38263;52.920;6.238;2022-07-06T11:11:38;20.10;99.90
52323;DHT22;38263;52.920;6.238;2022-07-06T11:14:08;19.90;99.90
52323;DHT22;38263;52.920;6.238;2022-07-06T11:17:22;19.90;99.90
52323;DHT22;38263;52.920;6.238;2022-07-06T11:19:26;19.70;99.90
52323;DHT22;38263;52.920;6.238;2022-07-06T11:21:53;20.10;99.90
52323;DHT22;38263;52.920;6.238;2022-07-06T11:24:23;20.10;99.90
52323;DHT22;38263;52.920;6.238;2022-07-06T11:26:51;20.00;99.90
52323;DHT22;38263;52.920;6.238;2022-07-06T11:29:19;20.30;99.90
52323;DHT22;38263;52.920;6.238;2022-07-06T11:31:48;20.20;99.90
52323;DHT22;38263;52.920;6.238;2022-07-06T11:34:19;20.40;99.90
52323;DHT22;38263;52.920;6.238;2022-07-06T11:36:45;20.10;99.90
52323;DHT22;38263;52.920;6.238;2022-07-06T11:39:12;20.30;99.90
52323;DHT22;38263;52.920;6.238;2022-07-06T11:41:38;20.10;99.90
52323;DHT22;38263;52.920;6.238;2022-07-06T11:44:04;20.10;99.90
52323;DHT22;38263;52.920;6.238;2022-07-06T11:46:31;20.30;99.90
52323;DHT22;38263;52.920;6.238;2022-07-06T11:49:04;20.40;99.90
52323;DHT22;38263;52.920;6.238;2022-07-06T11:51:32;20.60;99.90
52323;DHT22;38263;52.920;6.238;2022-07-06T11:54:01;20.40;99.90
52323;DHT22;38263;52.920;6.238;2022-07-06T11:56:28;20.40;99.90
52323;DHT22;38263;52.920;6.238;2022-07-06T11:58:59;20.40;99.90
52323;DHT22;38263;52.920;6.238;2022-07-06T12:01:26;20.80;99.90
52323;DHT22;38263;52.920;6.238;2022-07-06T12:03:53;20.80;99.90
52323;DHT22;38263;52.920;6.238;2022-07-06T12:06:23;20.70;99.90
52323;DHT22;38263;52.920;6.238;2022-07-06T12:08:58;21.10;99.90
52323;DHT22;38263;52.920;6.238;2022-07-06T12:11:30;20.90;99.90
52323;DHT22;38263;52.920;6.238;2022-07-06T12:14:00;21.00;99.90
52323;DHT22;38263;52.920;6.238;2022-07-06T12:16:46;21.10;99.90
52323;DHT22;38263;52.920;6.238;2022-07-06T12:19:12;21.20;99.90
52323;DHT22;38263;52.920;6.238;2022-07-06T12:21:48;21.00;99.90
52323;DHT22;38263;52.920;6.238;2022-07-06T12:26:44;21.10;99.90
52323;DHT22;38263;52.920;6.238;2022-07-06T12:29:11;21.20;99.90
52323;DHT22;38263;52.920;6.238;2022-07-06T12:31:52;21.20;99.90
52323;DHT22;38263;52.920;6.238;2022-07-06T12:34:18;21.00;99.90
52323;DHT22;38263;52.920;6.238;2022-07-06T12:36:49;21.10;99.90
52323;DHT22;38263;52.920;6.238;2022-07-06T12:39:16;21.20;99.90
52323;DHT22;38263;52.920;6.238;2022-07-06T12:44:20;21.40;99.90
52323;DHT22;38263;52.920;6.238;2022-07-06T12:46:46;21.40;99.90
52323;DHT22;38263;52.920;6.238;2022-07-06T12:49:21;21.40;99.90
52323;DHT22;38263;52.920;6.238;2022-07-06T12:52:01;21.30;99.90
52323;DHT22;38263;52.920;6.238;2022-07-06T12:54:42;21.40;99.90
52323;DHT22;38263;52.920;6.238;2022-07-06T12:57:22;21.30;99.90
52323;DHT22;38263;52.920;6.238;2022-07-06T12:59:55;21.30;99.90
52323;DHT22;38263;52.920;6.238;2022-07-06T13:02:25;21.50;99.90
52323;DHT22;38263;52.920;6.238;2022-07-06T13:05:11;20.80;99.90
52323;DHT22;38263;52.920;6.238;2022-07-06T13:07:46;21.00;99.90
52323;DHT22;38263;52.920;6.238;2022-07-06T13:10:13;21.00;99.90
52323;DHT22;38263;52.920;6.238;2022-07-06T13:12:39;20.80;99.90
52323;DHT22;38263;52.920;6.238;2022-07-06T13:15:07;20.60;99.90
52323;DHT22;38263;52.920;6.238;2022-07-06T13:17:33;20.60;99.90
52323;DHT22;38263;52.920;6.238;2022-07-06T13:19:59;20.60;99.90
52323;DHT22;38263;52.920;6.238;2022-07-06T13:22:25;20.50;99.90
52323;DHT22;38263;52.920;6.238;2022-07-06T13:24:50;20.40;99.90
52323;DHT22;38263;52.920;6.238;2022-07-06T13:27:16;20.20;99.90
52323;DHT22;38263;52.920;6.238;2022-07-06T13:29:42;20.40;99.90
52323;DHT22;38263;52.920;6.238;2022-07-06T13:32:08;20.30;99.90
52323;DHT22;38263;52.920;6.238;2022-07-06T13:34:33;20.40;99.90
52323;DHT22;38263;52.920;6.238;2022-07-06T13:37:01;20.60;99.90
52323;DHT22;38263;52.920;6.238;2022-07-06T13:39:27;21.80;99.90
52323;DHT22;38263;52.920;6.238;2022-07-06T13:41:53;20.40;99.90
52323;DHT22;38263;52.920;6.238;2022-07-06T13:44:19;20.20;99.90
52323;DHT22;38263;52.920;6.238;2022-07-06T13:46:44;20.20;99.90
52323;DHT22;38263;52.920;6.238;2022-07-06T13:49:11;20.30;99.90
52323;DHT22;38263;52.920;6.238;2022-07-06T13:51:36;20.00;99.90
52323;DHT22;38263;52.920;6.238;2022-07-06T13:54:02;20.20;99.90
52323;DHT22;38263;52.920;6.238;2022-07-06T13:56:28;19.80;99.90
52323;DHT22;38263;52.920;6.238;2022-07-06T13:58:55;19.70;99.90
52323;DHT22;38263;52.920;6.238;2022-07-06T14:01:21;19.80;99.90
52323;DHT22;38263;52.920;6.238;2022-07-06T14:03:47;19.90;99.90
52323;DHT22;38263;52.920;6.238;2022-07-06T14:06:12;19.80;99.90
52323;DHT22;38263;52.920;6.238;2022-07-06T14:08:39;19.70;99.90
52323;DHT22;38263;52.920;6.238;2022-07-06T14:11:06;19.80;99.90
52323;DHT22;38263;52.920;6.238;2022-07-06T14:13:33;19.60;99.90
52323;DHT22;38263;52.920;6.238;2022-07-06T14:15:59;19.60;99.90
52323;DHT22;38263;52.920;6.238;2022-07-06T14:18:25;19.50;99.90
52323;DHT22;38263;52.920;6.238;2022-07-06T14:20:52;19.80;99.90
52323;DHT22;38263;52.920;6.238;2022-07-06T14:23:19;19.40;99.90
52323;DHT22;38263;52.920;6.238;2022-07-06T14:25:45;19.60;99.90
52323;DHT22;38263;52.920;6.238;2022-07-06T14:28:11;19.50;99.90
52323;DHT22;38263;52.920;6.238;2022-07-06T14:30:39;19.50;99.90
52323;DHT22;38263;52.920;6.238;2022-07-06T14:33:07;19.30;99.90
52323;DHT22;38263;52.920;6.238;2022-07-06T14:35:38;19.20;99.90
52323;DHT22;38263;52.920;6.238;2022-07-06T14:38:06;18.00;99.90
52323;DHT22;38263;52.920;6.238;2022-07-06T14:40:33;19.20;99.90
52323;DHT22;38263;52.920;6.238;2022-07-06T14:42:59;19.20;99.90
52323;DHT22;38263;52.920;6.238;2022-07-06T14:45:25;19.30;99.90
52323;DHT22;38263;52.920;6.238;2022-07-06T14:47:51;19.20;99.90
52323;DHT22;38263;52.920;6.238;2022-07-06T14:50:17;19.20;99.90
52323;DHT22;38263;52.920;6.238;2022-07-06T14:52:43;19.10;99.90
52323;DHT22;38263;52.920;6.238;2022-07-06T14:55:09;19.10;99.90
52323;DHT22;38263;52.920;6.238;2022-07-06T14:57:34;18.90;99.90
52323;DHT22;38263;52.920;6.238;2022-07-06T15:00:00;19.00;99.90
52323;DHT22;38263;52.920;6.238;2022-07-06T15:02:26;19.30;99.90
52323;DHT22;38263;52.920;6.238;2022-07-06T15:04:51;19.10;99.90
52323;DHT22;38263;52.920;6.238;2022-07-06T15:07:17;19.10;99.90
52323;DHT22;38263;52.920;6.238;2022-07-06T15:09:42;19.10;99.90
52323;DHT22;38263;52.920;6.238;2022-07-06T15:12:08;19.20;99.90
52323;DHT22;38263;52.920;6.238;2022-07-06T15:14:34;19.00;99.90
52323;DHT22;38263;52.920;6.238;2022-07-06T15:17:00;18.80;99.90
52323;DHT22;38263;52.920;6.238;2022-07-06T15:19:26;20.10;99.90
52323;DHT22;38263;52.920;6.238;2022-07-06T15:21:53;18.80;99.90
52323;DHT22;38263;52.920;6.238;2022-07-06T15:24:19;18.70;99.90
52323;DHT22;38263;52.920;6.238;2022-07-06T15:26:44;19.00;99.90
52323;DHT22;38263;52.920;6.238;2022-07-06T15:29:10;18.70;99.90
52323;DHT22;38263;52.920;6.238;2022-07-06T15:31:36;18.90;99.90
52323;DHT22;38263;52.920;6.238;2022-07-06T15:34:01;18.70;99.90
52323;DHT22;38263;52.920;6.238;2022-07-06T15:36:27;18.60;99.90
52323;DHT22;38263;52.920;6.238;2022-07-06T15:38:53;18.90;99.90
52323;DHT22;38263;52.920;6.238;2022-07-06T15:41:18;18.70;99.90
52323;DHT22;38263;52.920;6.238;2022-07-06T15:43:44;18.40;99.90
52323;DHT22;38263;52.920;6.238;2022-07-06T15:46:11;18.40;99.90
52323;DHT22;38263;52.920;6.238;2022-07-06T15:48:37;18.40;99.90
52323;DHT22;38263;52.920;6.238;2022-07-06T15:51:03;18.00;99.90